Time;durP1;ratioP1;P1;durP2;ratioP2;P2;SDS_P1;SDS_P2;PMS_P1;PMS_P2;Temp;Humidity;BMP_temperature;BMP_pressure;BME280_temperature;BME280_humidity;BME280_pressure;Samples;Min_cycle;Max_cycle;Signal;HPM_P1;HPM_P2
2021/07/11 00:00:38;;;;;;;10.55;8.80;;;24.40;95.30;;;;;;5056865;28;20025;-81
2021/07/11 00:03:03;;;;;;;14.18;9.25;;;24.30;95.30;;;;;;5063407;28;20100;-82
2021/07/11 00:05:30;;;;;;;10.80;8.65;;;24.30;95.30;;;;;;5076051;28;20024;-82
2021/07/11 00:07:55;;;;;;;9.95;8.95;;;24.30;95.30;;;;;;5075745;28;20028;-81
2021/07/11 00:10:22;;;;;;;10.13;9.05;;;24.30;95.50;;;;;;5074427;28;20036;-81
2021/07/11 00:12:48;;;;;;;10.38;9.07;;;24.20;95.50;;;;;;5072527;28;20107;-81
2021/07/11 00:15:17;;;;;;;12.93;8.98;;;24.20;95.60;;;;;;5074082;28;20131;-81
2021/07/11 00:17:43;;;;;;;11.45;8.95;;;24.20;95.60;;;;;;5075615;28;20052;-81
2021/07/11 00:20:11;;;;;;;9.65;8.68;;;24.20;95.80;;;;;;5074225;28;20116;-81
2021/07/11 00:22:37;;;;;;;10.63;9.52;;;24.10;95.80;;;;;;5072004;28;20474;-81
2021/07/11 00:25:05;;;;;;;12.27;8.88;;;24.10;95.80;;;;;;5055488;28;20025;-81
2021/07/11 00:27:31;;;;;;;10.10;9.10;;;24.10;95.80;;;;;;5055512;28;20470;-81
2021/07/11 00:29:58;;;;;;;12.30;9.55;;;24.10;95.80;;;;;;5055380;28;20035;-81
2021/07/11 00:32:23;;;;;;;11.80;9.75;;;24.00;95.80;;;;;;5053929;28;20111;-81
2021/07/11 00:34:49;;;;;;;10.20;8.60;;;24.00;95.80;;;;;;5072736;28;20112;-81
2021/07/11 00:37:15;;;;;;;10.93;9.52;;;24.00;95.90;;;;;;5075178;28;20055;-81
2021/07/11 00:39:40;;;;;;;11.50;9.45;;;24.00;95.80;;;;;;5075146;28;20070;-81
2021/07/11 00:42:17;;;;;;;11.07;9.88;;;24.00;95.80;;;;;;5075187;28;20059;-81
2021/07/11 00:44:44;;;;;;;10.75;9.65;;;23.90;95.90;;;;;;5058845;28;20021;-81
2021/07/11 00:47:11;;;;;;;13.05;9.80;;;23.90;96.00;;;;;;5054952;28;20112;-81
2021/07/11 00:49:42;;;;;;;10.55;9.43;;;23.90;96.00;;;;;;5053823;28;20028;-81
2021/07/11 00:52:08;;;;;;;10.52;8.77;;;23.80;96.00;;;;;;5053926;28;20051;-81
2021/07/11 00:54:34;;;;;;;10.43;9.15;;;23.80;96.00;;;;;;5054395;28;20034;-81
2021/07/11 00:57:00;;;;;;;10.98;9.27;;;23.80;96.00;;;;;;5054924;28;20029;-81
2021/07/11 00:59:26;;;;;;;11.20;9.40;;;23.80;96.10;;;;;;5053424;28;20025;-81
2021/07/11 01:02:24;;;;;;;10.77;9.48;;;23.80;96.00;;;;;;5054661;28;20029;-81
2021/07/11 01:04:55;;;;;;;11.43;10.18;;;23.80;95.80;;;;;;5066683;28;20448;-81
2021/07/11 01:07:35;;;;;;;10.38;9.27;;;23.70;95.80;;;;;;5074554;28;20392;-81
2021/07/11 01:10:08;;;;;;;10.32;9.18;;;23.60;95.90;;;;;;5073263;28;20067;-81
2021/07/11 01:12:40;;;;;;;11.40;9.05;;;23.60;96.00;;;;;;5073148;28;20046;-81
2021/07/11 01:15:08;;;;;;;10.60;9.50;;;23.60;96.30;;;;;;5072313;28;20045;-81
2021/07/11 01:17:35;;;;;;;12.70;10.57;;;23.60;96.50;;;;;;5073167;28;20017;-81
2021/07/11 01:20:39;;;;;;;12.48;10.65;;;23.60;96.70;;;;;;5073095;28;20047;-81
2021/07/11 01:23:09;;;;;;;10.50;9.40;;;23.60;96.80;;;;;;5069934;28;20032;-81
2021/07/11 01:25:43;;;;;;;12.20;10.27;;;23.60;97.00;;;;;;5054802;28;20033;-81
2021/07/11 01:28:15;;;;;;;11.77;9.77;;;23.60;97.10;;;;;;5053096;28;20028;-81
2021/07/11 01:30:41;;;;;;;16.38;10.98;;;23.60;97.10;;;;;;5054155;28;20040;-81
2021/07/11 01:33:10;;;;;;;11.38;10.27;;;23.70;97.20;;;;;;5054343;28;20029;-81
2021/07/11 01:35:37;;;;;;;11.27;10.07;;;23.70;97.30;;;;;;5068820;28;20031;-81
2021/07/11 01:38:04;;;;;;;11.52;10.10;;;23.70;97.30;;;;;;5074059;28;20103;-81
2021/07/11 01:40:32;;;;;;;11.25;10.18;;;23.70;97.60;;;;;;5074138;28;20026;-81
2021/07/11 01:42:58;;;;;;;12.68;9.38;;;23.70;97.40;;;;;;5074035;28;20098;-81
2021/07/11 01:45:24;;;;;;;11.85;10.65;;;23.70;97.40;;;;;;5070852;28;20027;-81
2021/07/11 01:47:51;;;;;;;12.05;10.73;;;23.70;97.50;;;;;;5073933;28;20040;-81
2021/07/11 01:50:18;;;;;;;16.58;11.40;;;23.80;97.60;;;;;;5073891;28;20452;-81
2021/07/11 01:52:45;;;;;;;13.20;10.63;;;23.80;97.60;;;;;;5073570;28;20021;-81
2021/07/11 01:55:11;;;;;;;13.32;10.70;;;23.80;97.60;;;;;;5062754;28;20035;-81
2021/07/11 01:57:38;;;;;;;12.75;10.90;;;23.80;97.60;;;;;;5052572;28;20031;-81
2021/07/11 02:00:09;;;;;;;14.02;11.02;;;23.80;97.70;;;;;;5053691;28;20028;-81
2021/07/11 02:02:35;;;;;;;12.77;10.45;;;23.90;97.70;;;;;;5053118;28;20029;-81
2021/07/11 02:05:11;;;;;;;15.35;11.55;;;23.90;97.70;;;;;;5058212;28;20356;-81
2021/07/11 02:07:37;;;;;;;12.73;11.05;;;23.90;97.80;;;;;;5073803;28;20028;-81
2021/07/11 02:10:08;;;;;;;14.38;11.57;;;23.90;97.90;;;;;;5073801;28;20069;-81
2021/07/11 02:12:43;;;;;;;14.02;11.65;;;23.90;97.90;;;;;;5055703;28;20024;-81
2021/07/11 02:15:10;;;;;;;13.52;10.80;;;23.90;98.00;;;;;;5068711;28;20407;-81
2021/07/11 02:17:41;;;;;;;13.48;11.05;;;23.90;98.00;;;;;;5053718;28;20486;-81
2021/07/11 02:20:08;;;;;;;14.93;11.27;;;23.90;98.00;;;;;;5052422;28;20052;-81
2021/07/11 02:22:35;;;;;;;12.57;10.70;;;23.90;98.00;;;;;;5054066;28;20479;-81
2021/07/11 02:25:03;;;;;;;13.23;11.63;;;23.90;98.10;;;;;;5053652;28;20029;-82
2021/07/11 02:27:29;;;;;;;16.02;10.50;;;23.90;98.00;;;;;;5053445;28;20034;-82
2021/07/11 02:29:57;;;;;;;12.25;10.02;;;23.90;97.90;;;;;;5053480;28;20027;-81
2021/07/11 02:32:25;;;;;;;13.35;10.25;;;23.80;97.60;;;;;;5064389;28;20028;-82
2021/07/11 02:34:51;;;;;;;13.05;10.57;;;23.80;97.60;;;;;;5072183;28;20036;-82
2021/07/11 02:37:21;;;;;;;13.90;10.48;;;23.80;97.80;;;;;;5074014;28;20112;-82
2021/07/11 02:39:50;;;;;;;11.20;10.00;;;23.80;97.50;;;;;;5066304;28;20028;-82
2021/07/11 02:42:19;;;;;;;12.65;9.73;;;23.80;97.30;;;;;;5056023;28;20391;-81
2021/07/11 02:44:49;;;;;;;12.30;10.50;;;23.80;97.20;;;;;;5057391;28;20028;-81
2021/07/11 02:47:24;;;;;;;10.77;9.68;;;23.80;97.00;;;;;;5056047;28;20059;-81
2021/07/11 02:49:53;;;;;;;12.18;9.00;;;23.80;96.90;;;;;;5058067;28;20383;-81
2021/07/11 02:52:21;;;;;;;9.30;8.30;;;23.80;96.70;;;;;;5055706;28;20017;-81
2021/07/11 02:55:02;;;;;;;13.15;7.97;;;23.80;96.50;;;;;;5072126;28;20467;-81
2021/07/11 02:57:29;;;;;;;10.13;7.88;;;23.80;96.40;;;;;;5055692;28;20028;-81
2021/07/11 02:59:56;;;;;;;10.05;8.02;;;23.90;96.40;;;;;;5064871;28;20086;-81
2021/07/11 03:02:24;;;;;;;9.68;8.20;;;23.90;96.80;;;;;;5075583;28;20102;-81
2021/07/11 03:04:51;;;;;;;9.70;8.23;;;23.90;96.30;;;;;;5077167;28;20028;-81
2021/07/11 03:07:18;;;;;;;9.18;8.18;;;23.90;96.20;;;;;;5075248;28;20025;-81
2021/07/11 03:09:44;;;;;;;8.75;7.88;;;24.00;96.00;;;;;;5073341;28;20486;-81
2021/07/11 03:12:11;;;;;;;12.30;7.85;;;24.00;95.70;;;;;;5076983;28;20032;-82
2021/07/11 03:14:38;;;;;;;10.95;7.60;;;24.00;95.30;;;;;;5076017;28;20089;-81
2021/07/11 03:17:04;;;;;;;8.23;7.13;;;24.00;95.10;;;;;;5076286;28;20036;-81
2021/07/11 03:19:37;;;;;;;8.07;7.28;;;24.10;95.00;;;;;;5075496;28;20025;-82
2021/07/11 03:22:04;;;;;;;7.43;6.75;;;24.10;95.00;;;;;;5065517;28;20082;-81
2021/07/11 03:24:31;;;;;;;8.60;6.80;;;24.10;95.20;;;;;;5056380;28;20051;-81
2021/07/11 03:26:58;;;;;;;6.68;5.97;;;24.20;95.00;;;;;;5055473;28;20029;-81
2021/07/11 03:29:39;;;;;;;8.23;6.97;;;24.20;94.50;;;;;;5056410;28;20031;-82
2021/07/11 03:32:07;;;;;;;9.85;6.65;;;24.20;93.90;;;;;;5057345;28;20025;-81
2021/07/11 03:34:34;;;;;;;8.82;6.15;;;24.20;94.00;;;;;;5055977;28;20076;-81
2021/07/11 03:37:07;;;;;;;7.85;6.40;;;24.30;94.00;;;;;;5054904;28;20021;-82
2021/07/11 03:39:38;;;;;;;9.45;6.68;;;24.30;93.60;;;;;;5071852;28;20029;-81
2021/07/11 03:42:08;;;;;;;7.03;5.97;;;24.30;93.40;;;;;;5040033;28;20029;-82
2021/07/11 03:44:34;;;;;;;;;;;24.30;93.50;;;;;;5056519;28;20025;-82
2021/07/11 03:47:03;;;;;;;5.88;5.38;;;24.30;93.20;;;;;;5055768;28;19904;-82
2021/07/11 03:49:31;;;;;;;8.13;6.05;;;24.40;93.50;;;;;;5054574;28;20471;-82
2021/07/11 03:52:04;;;;;;;7.63;6.47;;;24.40;93.10;;;;;;5055719;28;20044;-81
2021/07/11 03:54:36;;;;;;;6.90;6.22;;;24.50;93.20;;;;;;5060840;28;20037;-82
2021/07/11 03:57:03;;;;;;;8.30;7.15;;;24.50;93.10;;;;;;5075685;28;20109;-81
2021/07/11 03:59:33;;;;;;;7.40;6.70;;;24.50;93.10;;;;;;5074712;28;20111;-81
2021/07/11 04:02:07;;;;;;;12.00;8.05;;;24.60;93.30;;;;;;5074660;28;20028;-82
2021/07/11 04:04:36;;;;;;;8.77;7.78;;;24.60;93.60;;;;;;5075852;28;20479;-82
2021/07/11 04:07:03;;;;;;;11.10;8.38;;;24.70;94.10;;;;;;5073952;28;20490;-82
2021/07/11 04:09:29;;;;;;;9.45;8.43;;;24.70;94.30;;;;;;5075599;28;20024;-82
2021/07/11 04:11:55;;;;;;;9.90;8.52;;;24.70;94.40;;;;;;5074001;28;20024;-82
2021/07/11 04:14:22;;;;;;;11.15;8.77;;;24.80;94.50;;;;;;5057439;28;20059;-82
2021/07/11 04:17:08;;;;;;;9.68;8.73;;;24.80;94.40;;;;;;5074282;28;20108;-82
2021/07/11 04:19:39;;;;;;;10.10;8.25;;;24.80;94.50;;;;;;5074941;28;20028;-82
2021/07/11 04:22:07;;;;;;;13.40;9.32;;;24.90;94.70;;;;;;5057581;28;20025;-83
2021/07/11 04:24:35;;;;;;;10.60;8.05;;;24.80;94.50;;;;;;5075411;28;20100;-83
2021/07/11 04:27:03;;;;;;;9.27;8.02;;;24.90;94.40;;;;;;5075570;28;20066;-83
2021/07/11 04:29:32;;;;;;;8.73;7.55;;;24.90;94.40;;;;;;5075042;28;20038;-82
2021/07/11 04:31:59;;;;;;;8.85;7.95;;;24.90;94.10;;;;;;5074211;28;20470;-82
2021/07/11 04:34:29;;;;;;;10.55;8.82;;;25.00;94.10;;;;;;5074019;28;20063;-82
2021/07/11 04:36:57;;;;;;;8.50;7.70;;;25.00;94.10;;;;;;5073510;28;20060;-82
2021/07/11 04:39:23;;;;;;;8.88;8.07;;;25.00;94.10;;;;;;5073618;28;20031;-82
2021/07/11 04:41:49;;;;;;;8.63;7.82;;;25.10;94.10;;;;;;5070628;28;20111;-82
2021/07/11 04:44:16;;;;;;;9.40;8.50;;;25.10;93.80;;;;;;5053758;28;20070;-83
2021/07/11 04:46:42;;;;;;;10.35;9.35;;;25.10;93.90;;;;;;5053579;28;20123;-82
2021/07/11 04:49:08;;;;;;;11.15;9.07;;;25.10;93.70;;;;;;5053263;28;20059;-82
2021/07/11 04:51:34;;;;;;;9.98;8.95;;;25.20;93.80;;;;;;5037118;28;20033;-82
2021/07/11 04:53:59;;;;;;;11.15;8.80;;;25.20;94.00;;;;;;5054259;28;20036;-82
2021/07/11 04:56:25;;;;;;;16.88;8.63;;;25.20;94.00;;;;;;5053231;28;20379;-82
2021/07/11 04:58:51;;;;;;;9.95;8.93;;;25.30;94.10;;;;;;5054175;28;20033;-81
2021/07/11 05:01:17;;;;;;;9.57;8.68;;;25.30;94.10;;;;;;5052914;28;20017;-81
2021/07/11 05:03:43;;;;;;;13.70;9.10;;;25.30;94.30;;;;;;5054531;28;20108;-81
2021/07/11 05:06:08;;;;;;;9.70;8.75;;;25.30;94.20;;;;;;5060539;28;20047;-81
2021/07/11 05:08:34;;;;;;;11.77;9.50;;;25.40;94.30;;;;;;5074176;28;20032;-82
2021/07/11 05:11:01;;;;;;;9.38;8.43;;;25.40;94.20;;;;;;5074315;28;20416;-82
2021/07/11 05:13:26;;;;;;;9.85;8.85;;;25.40;94.20;;;;;;5074054;28;20099;-82
2021/07/11 18:19:27;;;;;;;8.88;7.90;;;28.80;78.60;;;;;;5092095;28;20366;-92
2021/07/11 18:21:53;;;;;;;10.68;7.65;;;28.40;80.40;;;;;;5091372;28;20379;-90
2021/07/11 18:24:19;;;;;;;9.73;7.88;;;28.40;80.50;;;;;;5090574;28;20370;-90
2021/07/11 18:26:44;;;;;;;8.90;8.00;;;28.30;79.60;;;;;;5090996;28;20070;-90
2021/07/11 18:29:10;;;;;;;9.10;7.82;;;28.30;79.50;;;;;;5090601;28;20024;-90
2021/07/11 18:31:36;;;;;;;8.65;7.85;;;28.40;79.10;;;;;;5081606;28;20119;-91
2021/07/11 18:34:02;;;;;;;9.45;8.48;;;28.40;78.70;;;;;;5080309;28;20108;-84
2021/07/11 18:36:28;;;;;;;12.32;10.18;;;28.40;78.90;;;;;;5079884;28;20538;-85
2021/07/11 18:38:54;;;;;;;9.48;8.48;;;28.40;78.60;;;;;;5090082;28;20501;-87
2021/07/11 18:41:20;;;;;;;8.70;7.80;;;28.40;79.50;;;;;;5089031;28;20020;-86
2021/07/11 18:43:46;;;;;;;9.40;8.48;;;28.40;79.60;;;;;;5089500;28;20389;-86
2021/07/11 18:46:12;;;;;;;10.88;8.35;;;28.40;79.80;;;;;;5083493;28;20088;-87
2021/07/11 18:48:38;;;;;;;8.63;7.82;;;28.40;80.50;;;;;;5083514;28;20030;-84
2021/07/11 18:51:07;;;;;;;10.25;7.90;;;28.40;80.20;;;;;;5089567;28;20056;-93
2021/07/11 18:53:35;;;;;;;11.05;8.65;;;28.40;79.50;;;;;;5069395;28;20111;-87
2021/07/11 18:56:01;;;;;;;128.73;87.05;;;28.40;79.50;;;;;;5070058;28;20031;-86
2021/07/11 18:58:26;;;;;;;11.48;9.68;;;28.40;80.10;;;;;;5068630;28;20027;-86
2021/07/11 19:00:52;;;;;;;13.90;8.98;;;28.40;80.10;;;;;;5068728;28;20100;-85
2021/07/11 19:03:18;;;;;;;10.38;9.30;;;28.30;80.10;;;;;;5069882;28;20028;-87
2021/07/11 19:05:44;;;;;;;9.90;8.90;;;28.40;80.00;;;;;;5068379;28;20024;-88
2021/07/11 19:08:10;;;;;;;11.00;8.65;;;28.30;80.10;;;;;;5072233;28;20112;-87
2021/07/11 19:10:37;;;;;;;11.20;8.70;;;28.30;80.50;;;;;;5068596;28;20084;-87
2021/07/11 19:13:06;;;;;;;15.70;11.13;;;28.30;80.70;;;;;;5068371;28;20025;-87
2021/07/11 19:15:33;;;;;;;11.63;9.10;;;28.30;79.70;;;;;;5068286;28;20029;-89
2021/07/11 19:17:59;;;;;;;12.85;9.45;;;28.20;79.00;;;;;;5067965;28;20051;-91
2021/07/11 19:20:24;;;;;;;14.85;9.90;;;28.20;78.60;;;;;;5076531;28;20025;-87
2021/07/11 19:22:50;;;;;;;14.23;11.80;;;28.20;78.10;;;;;;5070183;28;20059;-87
2021/07/11 19:25:16;;;;;;;14.27;9.35;;;28.20;78.40;;;;;;5069209;28;20375;-87
2021/07/11 19:27:44;;;;;;;10.05;8.85;;;28.20;77.90;;;;;;5067741;28;20031;-87
2021/07/11 19:30:12;;;;;;;12.95;8.30;;;28.20;78.00;;;;;;5057992;28;20021;-86
2021/07/11 19:32:39;;;;;;;18.25;9.10;;;28.20;78.50;;;;;;5055949;28;20048;-86
2021/07/11 19:35:06;;;;;;;9.93;8.93;;;28.20;78.60;;;;;;5054532;28;20025;-86
2021/07/11 19:37:32;;;;;;;9.90;8.88;;;28.20;78.30;;;;;;5054348;28;20470;-87
2021/07/11 19:39:58;;;;;;;11.63;10.38;;;28.20;78.90;;;;;;5056204;28;20098;-86
2021/07/11 19:42:24;;;;;;;11.05;8.90;;;28.20;78.70;;;;;;5070998;28;20115;-86
2021/07/11 19:44:50;;;;;;;11.82;8.73;;;28.10;78.80;;;;;;5070146;28;20443;-87
2021/07/11 19:47:16;;;;;;;10.05;8.55;;;28.10;78.80;;;;;;5074285;28;20029;-87
2021/07/11 19:49:42;;;;;;;21.65;14.50;;;28.10;79.00;;;;;;5074214;28;20055;-86
2021/07/11 19:52:08;;;;;;;12.05;8.95;;;28.00;78.80;;;;;;5073733;28;20032;-88
2021/07/11 19:54:34;;;;;;;14.07;9.30;;;28.00;78.80;;;;;;5074249;28;20062;-88
2021/07/11 19:57:00;;;;;;;11.07;9.10;;;28.00;78.90;;;;;;5074239;28;20092;-93
2021/07/11 19:59:56;;;;;;;11.15;9.13;;;28.00;79.10;;;;;;5074279;28;20036;-93
2021/07/11 20:02:24;;;;;;;14.40;11.65;;;28.00;78.90;;;;;;5073123;28;20119;-96
2021/07/11 20:04:53;;;;;;;10.88;9.55;;;27.90;79.00;;;;;;5075740;28;20032;-95
2021/07/11 20:07:20;;;;;;;12.95;8.48;;;27.90;78.80;;;;;;5066024;28;20037;-96
2021/07/11 20:09:46;;;;;;;9.93;8.98;;;27.90;78.60;;;;;;5054971;28;20033;-96
2021/07/11 20:12:12;;;;;;;10.75;8.05;;;27.90;78.70;;;;;;5055561;28;20033;-96
2021/07/11 20:14:42;;;;;;;11.80;7.95;;;27.90;78.70;;;;;;5069381;28;20032;-96
2021/07/11 20:17:09;;;;;;;9.15;7.80;;;27.90;78.50;;;;;;5074808;28;20132;-96
2021/07/11 20:19:35;;;;;;;11.20;8.63;;;27.80;78.60;;;;;;5058789;28;20020;-96
2021/07/11 20:22:01;;;;;;;8.55;7.68;;;27.80;78.50;;;;;;5058371;28;20046;-96
2021/07/11 20:24:27;;;;;;;9.90;8.38;;;27.80;78.60;;;;;;5059019;28;20091;-96
2021/07/11 20:26:52;;;;;;;21.90;8.45;;;27.70;78.20;;;;;;5058573;28;20040;-96
2021/07/11 20:29:18;;;;;;;9.20;8.38;;;27.70;78.60;;;;;;5058385;28;20031;-96
2021/07/11 20:31:44;;;;;;;9.93;8.65;;;27.70;78.80;;;;;;5058619;28;20029;-96
2021/07/11 20:34:10;;;;;;;9.77;8.75;;;27.70;78.70;;;;;;5058520;28;20037;-96
2021/07/11 20:36:36;;;;;;;12.75;8.48;;;27.70;78.90;;;;;;5059025;28;20038;-96
2021/07/11 20:39:02;;;;;;;8.82;7.93;;;27.60;78.80;;;;;;5059470;28;20112;-96
2021/07/11 20:41:28;;;;;;;10.63;8.55;;;27.60;78.70;;;;;;5057631;28;20028;-96
2021/07/11 20:43:54;;;;;;;9.18;8.27;;;27.50;78.90;;;;;;5058427;28;20050;-96
2021/07/11 20:46:21;;;;;;;10.57;8.13;;;27.60;78.80;;;;;;5058292;28;20368;-95
2021/07/11 20:48:47;;;;;;;11.07;9.23;;;27.50;78.70;;;;;;5057841;28;20359;-96
2021/07/11 20:51:15;;;;;;;8.68;7.88;;;27.50;78.40;;;;;;5058143;28;20031;-96
2021/07/11 20:53:40;;;;;;;9.35;7.70;;;27.50;79.00;;;;;;5058509;28;20024;-96
2021/07/11 20:56:10;;;;;;;8.73;7.65;;;27.50;79.10;;;;;;5057933;28;20489;-94
2021/07/11 20:58:36;;;;;;;10.43;8.50;;;27.50;79.00;;;;;;5057597;28;20119;-96
2021/07/11 21:01:02;;;;;;;8.55;7.63;;;27.40;79.20;;;;;;5057650;28;20490;-95
2021/07/11 21:03:28;;;;;;;10.57;7.88;;;27.40;79.20;;;;;;5057631;28;20025;-96
2021/07/11 21:05:54;;;;;;;9.60;8.57;;;27.40;79.50;;;;;;5057481;28;20020;-96
2021/07/11 21:08:21;;;;;;;8.85;7.95;;;27.40;79.80;;;;;;5057464;28;20070;-96
2021/07/11 21:10:48;;;;;;;9.07;7.70;;;27.40;80.30;;;;;;5058117;28;20025;-96
2021/07/11 21:13:14;;;;;;;8.52;7.72;;;27.30;80.70;;;;;;5057820;28;20040;-96
2021/07/11 21:15:40;;;;;;;9.05;8.15;;;27.30;80.90;;;;;;5058186;28;20024;-96
2021/07/11 21:18:06;;;;;;;9.38;7.75;;;27.30;81.50;;;;;;5062977;28;20438;-96
2021/07/11 21:20:32;;;;;;;8.73;7.93;;;27.20;81.70;;;;;;5073598;28;20048;-96
2021/07/11 21:22:58;;;;;;;9.40;8.15;;;27.20;82.00;;;;;;5074225;28;20024;-96
2021/07/11 21:25:23;;;;;;;8.93;7.93;;;27.20;82.30;;;;;;5073652;28;20066;-96
2021/07/11 21:27:51;;;;;;;9.20;7.65;;;27.10;82.30;;;;;;5074665;28;20028;-96
2021/07/11 21:30:19;;;;;;;10.15;7.38;;;27.10;82.60;;;;;;5073793;28;20024;-96
2021/07/11 21:32:45;;;;;;;9.02;8.15;;;27.10;83.20;;;;;;5073701;28;20024;-96
2021/07/11 21:35:11;;;;;;;10.38;7.50;;;27.00;83.70;;;;;;5073657;28;20041;-96
2021/07/11 21:37:37;;;;;;;10.98;9.27;;;27.00;84.20;;;;;;5074299;28;20021;-96
2021/07/11 21:40:05;;;;;;;9.25;8.35;;;26.90;84.90;;;;;;5073599;28;20419;-96
2021/07/11 21:42:33;;;;;;;8.90;8.00;;;26.90;85.00;;;;;;5074206;28;20017;-95
2021/07/11 21:44:59;;;;;;;9.30;8.23;;;26.80;85.30;;;;;;5073563;28;20020;-96
2021/07/11 21:47:25;;;;;;;9.25;8.25;;;26.90;85.90;;;;;;5073544;28;20024;-95
2021/07/11 21:49:51;;;;;;;11.02;8.07;;;26.80;86.00;;;;;;5073495;28;20031;-96
2021/07/11 21:52:17;;;;;;;10.38;8.57;;;26.80;86.10;;;;;;5073246;28;20060;-95
2021/07/11 21:54:42;;;;;;;10.43;8.30;;;26.80;86.20;;;;;;5073426;28;20470;-95
2021/07/11 21:57:08;;;;;;;9.02;7.90;;;26.80;86.40;;;;;;5074327;28;20040;-96
2021/07/11 21:59:34;;;;;;;8.82;7.97;;;26.80;86.30;;;;;;5074036;28;20029;-96
2021/07/11 22:02:00;;;;;;;9.25;8.35;;;26.80;86.40;;;;;;5073466;28;20028;-96
2021/07/11 22:04:26;;;;;;;8.75;7.95;;;26.80;86.50;;;;;;5073370;28;20462;-95
2021/07/11 22:06:51;;;;;;;8.75;7.68;;;26.80;86.70;;;;;;5073338;28;20024;-96
2021/07/11 22:09:17;;;;;;;8.55;7.75;;;26.80;87.00;;;;;;5074084;28;20085;-94
2021/07/11 22:11:46;;;;;;;8.70;7.80;;;26.70;87.10;;;;;;5073347;28;20536;-94
2021/07/11 22:14:12;;;;;;;8.60;7.80;;;26.70;87.30;;;;;;5073178;28;20020;-94
2021/07/11 22:16:38;;;;;;;9.00;8.13;;;26.60;87.60;;;;;;5073671;28;20032;-95
2021/07/11 22:19:04;;;;;;;9.13;8.23;;;26.60;87.50;;;;;;5072884;28;20049;-93
2021/07/11 22:21:31;;;;;;;9.10;8.15;;;26.60;87.40;;;;;;5054865;28;20029;-93
2021/07/11 22:23:57;;;;;;;8.90;8.02;;;26.50;87.80;;;;;;5053152;28;20025;-94
2021/07/11 22:26:23;;;;;;;9.25;7.80;;;26.60;88.00;;;;;;5053185;28;20080;-94
2021/07/11 22:28:49;;;;;;;8.77;7.97;;;26.50;87.80;;;;;;5053143;28;20048;-94
2021/07/11 22:31:15;;;;;;;8.90;8.00;;;26.50;87.80;;;;;;5053934;28;20032;-94
2021/07/11 22:33:41;;;;;;;8.25;7.32;;;26.50;88.70;;;;;;5053762;28;20504;-94
2021/07/11 22:36:07;;;;;;;8.70;7.90;;;26.50;88.20;;;;;;5053064;28;20029;-96
2021/07/11 22:38:34;;;;;;;9.05;7.88;;;26.50;88.10;;;;;;5053012;28;20035;-95
2021/07/11 22:41:00;;;;;;;8.80;7.95;;;26.40;88.40;;;;;;5053004;28;20027;-96
2021/07/11 22:43:26;;;;;;;10.75;8.77;;;26.40;88.90;;;;;;5053425;28;20029;-96
2021/07/11 22:45:52;;;;;;;8.50;7.70;;;26.40;89.00;;;;;;5053440;28;20151;-95
2021/07/11 22:48:19;;;;;;;8.82;7.97;;;26.40;89.30;;;;;;5052933;28;20033;-95
2021/07/11 22:50:45;;;;;;;9.15;7.88;;;26.30;89.20;;;;;;5052958;28;20032;-96
2021/07/11 22:53:11;;;;;;;8.65;7.95;;;26.30;89.40;;;;;;5053021;28;20029;-96
2021/07/11 22:55:38;;;;;;;10.73;8.40;;;26.30;89.60;;;;;;5053026;28;20024;-95
2021/07/11 22:58:03;;;;;;;9.50;8.63;;;26.20;89.70;;;;;;5052764;28;20029;-96
2021/07/11 23:00:35;;;;;;;8.80;8.00;;;26.20;89.80;;;;;;5052656;28;20032;-96
2021/07/11 23:03:01;;;;;;;9.30;7.72;;;26.20;89.80;;;;;;5052723;28;20059;-96
2021/07/11 23:05:27;;;;;;;10.45;8.45;;;26.20;90.10;;;;;;5055015;28;20021;-96
2021/07/11 23:07:54;;;;;;;9.00;7.90;;;26.10;90.10;;;;;;5056500;28;20036;-96
2021/07/11 23:10:20;;;;;;;9.50;8.63;;;26.20;90.30;;;;;;5056930;28;20053;-96
2021/07/11 23:12:47;;;;;;;9.30;8.32;;;26.10;90.30;;;;;;5056354;28;20036;-95
2021/07/11 23:15:19;;;;;;;11.55;8.57;;;26.10;90.40;;;;;;5056639;28;20029;-95
2021/07/11 23:17:45;;;;;;;9.35;8.18;;;26.10;90.70;;;;;;5055775;28;20113;-96
2021/07/11 23:20:13;;;;;;;10.40;9.30;;;26.00;90.80;;;;;;5056273;28;20052;-96
2021/07/11 23:22:39;;;;;;;10.70;9.18;;;26.00;90.80;;;;;;5056012;28;20078;-96
2021/07/11 23:25:07;;;;;;;9.88;8.90;;;26.00;90.80;;;;;;5056320;28;20467;-95
2021/07/11 23:27:33;;;;;;;9.45;8.48;;;26.00;90.70;;;;;;5056262;28;20082;-96
2021/07/11 23:30:00;;;;;;;9.65;8.70;;;26.00;90.80;;;;;;5056231;28;20037;-96
2021/07/11 23:32:26;;;;;;;9.57;8.68;;;26.00;90.80;;;;;;5056099;28;20025;-96
2021/07/11 23:34:52;;;;;;;10.98;9.52;;;26.00;90.60;;;;;;5056848;28;20059;-95
2021/07/11 23:37:19;;;;;;;9.43;8.52;;;26.00;90.40;;;;;;5056679;28;20378;-95
2021/07/11 23:39:46;;;;;;;9.93;8.93;;;26.00;90.30;;;;;;5055946;28;20021;-96
2021/07/11 23:42:12;;;;;;;9.60;8.52;;;26.00;90.00;;;;;;5055915;28;20070;-94
2021/07/11 23:44:38;;;;;;;9.40;8.13;;;26.00;89.00;;;;;;5055862;28;20029;-94
2021/07/11 23:47:04;;;;;;;9.70;8.35;;;26.10;88.50;;;;;;5055900;28;20162;-95
2021/07/11 23:49:30;;;;;;;11.20;8.50;;;26.10;88.30;;;;;;5055848;28;20057;-94
2021/07/11 23:51:57;;;;;;;8.90;7.97;;;26.10;87.60;;;;;;5055830;28;20025;-94
2021/07/11 23:54:24;;;;;;;9.23;8.25;;;26.10;87.10;;;;;;5056613;28;20025;-93
2021/07/11 23:56:49;;;;;;;8.70;7.95;;;26.10;86.70;;;;;;5055634;28;20025;-93
2021/07/11 23:59:15;;;;;;;8.05;7.25;;;26.10;86.70;;;;;;5055631;28;20040;-94
